createdAt,value
2023-04-27T00:13:15.752Z,98214.84
2023-04-27T00:33:18.451Z,98211.13
2023-04-27T00:53:21.496Z,98211.59
2023-04-27T01:13:24.481Z,98218.66
2023-04-27T01:33:27.443Z,98225.19
2023-04-27T01:53:30.121Z,98227.59
2023-04-27T02:13:33.024Z,98232.22
2023-04-27T02:33:35.712Z,98244.56
2023-04-27T02:53:38.364Z,98235.97
2023-04-27T03:13:44.280Z,98225.25
2023-04-27T03:33:47.275Z,98239.84
2023-04-27T03:53:49.951Z,98257.28
2023-04-27T04:13:53.019Z,98275.06
2023-04-27T04:33:55.855Z,98290.72
2023-04-27T04:53:59.845Z,98301.06
2023-04-27T05:14:03.960Z,98315.47
2023-04-27T05:34:06.884Z,98315.75
2023-04-27T05:54:09.509Z,98330.16
2023-04-27T06:14:12.415Z,98347.28
2023-04-27T06:34:15.058Z,98352.69
2023-04-27T06:54:17.928Z,98365.81
2023-04-27T07:14:21.139Z,98363.19
2023-04-27T07:34:24.092Z,98368.03
2023-04-27T07:54:26.829Z,98373.66
2023-04-27T08:14:29.698Z,98353.13
2023-04-27T08:34:32.458Z,98366.41
2023-04-27T08:54:35.150Z,98372.38
2023-04-27T09:14:38.201Z,98370.84
2023-04-27T09:34:42.329Z,98360.03
2023-04-27T09:54:45.296Z,98373.12
2023-04-27T10:14:48.169Z,98367.72
2023-04-27T10:34:51.249Z,98372.56
2023-04-27T10:54:54.117Z,98356.28
2023-04-27T11:14:56.914Z,98355.69
2023-04-27T11:35:00.303Z,98368.00
2023-04-27T11:55:03.221Z,98367.00
2023-04-27T12:15:06.008Z,98375.75
2023-04-27T12:35:08.708Z,98386.88
2023-04-27T12:55:21.495Z,98393.75
2023-04-27T13:15:34.012Z,98374.81
2023-04-27T13:35:36.676Z,98383.16
2023-04-27T13:55:39.343Z,98382.25
2023-04-27T14:15:42.661Z,98377.81
2023-04-27T14:35:45.274Z,98401.63
2023-04-27T14:55:48.002Z,98417.72
2023-04-27T15:15:52.233Z,98423.56
2023-04-27T15:35:54.869Z,98420.81
2023-04-27T15:55:57.921Z,98434.06
2023-04-27T16:16:00.813Z,98430.66
2023-04-27T16:36:03.534Z,98428.31
2023-04-27T16:56:06.243Z,98431.37
2023-04-27T17:16:12.929Z,98442.72
2023-04-27T17:36:16.319Z,98449.81
2023-04-27T17:56:18.966Z,98454.09
2023-04-27T18:16:21.679Z,98456.97
2023-04-27T18:36:24.672Z,98476.19
2023-04-27T18:56:27.473Z,98500.59
2023-04-27T19:16:30.328Z,98511.56
2023-04-27T19:36:33.986Z,98512.41
2023-04-27T19:56:36.762Z,98512.44
2023-04-27T20:16:39.553Z,98525.53
2023-04-27T20:36:42.708Z,98524.66
2023-04-27T20:56:45.469Z,98522.59
2023-04-27T21:16:48.200Z,98531.84
2023-04-27T21:36:50.878Z,98523.41
2023-04-27T21:56:53.502Z,98531.38
2023-04-27T22:16:56.743Z,98556.06
2023-04-27T22:36:59.637Z,98556.34
2023-04-27T22:57:03.648Z,98546.19
2023-04-27T23:17:06.483Z,98551.97
2023-04-27T23:37:09.583Z,98548.06
2023-04-27T23:57:12.507Z,98541.81
